Time;durP1;ratioP1;P1;durP2;ratioP2;P2;SDS_P1;SDS_P2;PMS_P1;PMS_P2;Temp;Humidity;BMP_temperature;BMP_pressure;BME280_temperature;BME280_humidity;BME280_pressure;Samples;Min_cycle;Max_cycle;Signal;HPM_P1;HPM_P2
2021/11/23 00:01:15;;;;;;;17.08;7.65;;;;;;;4.35;79.08;103034.25;4994774;28;20121;-51
2021/11/23 00:03:43;;;;;;;13.35;7.32;;;;;;;4.36;79.83;103027.03;4994657;28;20050;-52
2021/11/23 00:06:11;;;;;;;14.20;7.40;;;;;;;4.37;79.34;103029.53;4994337;28;20038;-53
2021/11/23 00:08:39;;;;;;;17.33;7.50;;;;;;;4.38;79.31;103025.00;5000390;28;20493;-52
2021/11/23 00:11:06;;;;;;;13.93;7.32;;;;;;;4.39;79.08;103029.38;4994741;28;20042;-52
2021/11/23 00:13:34;;;;;;;16.00;8.52;;;;;;;4.38;78.68;103031.25;4994382;28;20047;-51
2021/11/23 00:16:02;;;;;;;13.52;8.10;;;;;;;4.34;79.43;103029.91;4994505;28;20545;-51
2021/11/23 00:18:29;;;;;;;14.45;7.53;;;;;;;4.31;79.11;103035.66;4999078;28;20042;-52
2021/11/23 00:20:57;;;;;;;13.82;8.40;;;;;;;4.29;79.05;103029.56;4999552;28;20516;-51
2021/11/23 00:23:25;;;;;;;15.30;7.55;;;;;;;4.27;79.02;103024.34;4994350;28;20575;-53
2021/11/23 00:25:52;;;;;;;13.63;7.57;;;;;;;4.26;78.65;103030.75;4994071;28;20060;-52
2021/11/23 00:28:20;;;;;;;18.30;6.82;;;;;;;4.21;79.15;103029.56;4994543;28;20042;-52
2021/11/23 00:30:48;;;;;;;13.25;6.78;;;;;;;4.20;79.67;103027.91;4993308;28;20050;-53
2021/11/23 00:33:16;;;;;;;11.70;6.55;;;;;;;4.22;79.94;103024.00;4994007;28;20081;-51
2021/11/23 00:35:45;;;;;;;15.23;7.47;;;;;;;4.20;79.48;103034.13;4994233;28;20464;-47
2021/11/23 00:38:15;;;;;;;15.90;7.18;;;;;;;4.19;79.32;103032.47;4998670;28;20034;-53
2021/11/23 00:40:43;;;;;;;13.35;6.28;;;;;;;4.20;79.60;103026.03;4998922;28;20061;-54
2021/11/23 00:43:11;;;;;;;14.30;6.50;;;;;;;4.22;79.63;103015.91;4999311;28;20046;-51
2021/11/23 00:45:40;;;;;;;12.65;5.70;;;;;;;4.23;79.76;103012.22;4996746;28;20046;-52
2021/11/23 00:48:09;;;;;;;12.32;5.60;;;;;;;4.24;79.84;103013.91;4994075;28;20070;-51
2021/11/23 00:50:36;;;;;;;11.88;5.90;;;;;;;4.25;80.45;103007.47;4994427;28;20042;-51
2021/11/23 00:53:05;;;;;;;12.00;5.50;;;;;;;4.28;80.56;103008.97;4992911;28;20054;-54
2021/11/23 00:55:33;;;;;;;11.63;5.82;;;;;;;4.31;80.62;103018.63;4993706;28;20065;-49
2021/11/23 00:58:01;;;;;;;15.13;5.88;;;;;;;4.35;80.89;103011.84;4993568;28;20069;-51
2021/11/23 01:00:28;;;;;;;18.40;5.82;;;;;;;4.36;80.88;103010.84;4999093;28;20412;-51
2021/11/23 01:02:58;;;;;;;15.00;6.43;;;;;;;4.39;81.19;103013.19;4993875;28;20042;-50
2021/11/23 01:05:26;;;;;;;15.18;6.00;;;;;;;4.37;80.19;103012.50;4993577;28;20043;-52
2021/11/23 01:07:55;;;;;;;10.52;5.90;;;;;;;4.33;80.33;103011.16;4993373;28;20054;-50
2021/11/23 01:10:23;;;;;;;12.45;5.88;;;;;;;4.29;80.76;103016.09;4994440;28;20044;-49
2021/11/23 01:12:52;;;;;;;14.95;6.18;;;;;;;4.30;80.94;103012.34;4993064;28;20401;-50
2021/11/23 01:15:20;;;;;;;13.20;6.05;;;;;;;4.32;81.87;103002.22;4993660;28;20133;-50
2021/11/23 01:17:47;;;;;;;12.30;6.20;;;;;;;4.34;81.91;103002.91;4992048;28;20041;-54
2021/11/23 01:20:15;;;;;;;12.50;6.00;;;;;;;4.38;81.43;102995.31;4993577;28;20050;-52
2021/11/23 01:22:44;;;;;;;13.40;6.03;;;;;;;4.39;80.69;102995.13;4995588;28;20484;-47
2021/11/23 01:25:12;;;;;;;12.15;6.32;;;;;;;4.38;80.11;102988.06;4979499;28;20050;-51
2021/11/23 01:27:40;;;;;;;11.50;6.50;;;;;;;4.37;80.30;102990.91;4993417;28;20042;-52
2021/11/23 01:30:10;;;;;;;13.55;6.90;;;;;;;4.37;80.27;102990.91;4993093;28;20041;-51
2021/11/23 01:32:38;;;;;;;14.05;6.55;;;;;;;4.35;80.07;102984.84;4994063;28;20508;-50
2021/11/23 01:35:08;;;;;;;12.18;6.28;;;;;;;4.37;80.69;102994.47;4993082;28;20497;-51
2021/11/23 01:37:36;;;;;;;13.20;5.47;;;;;;;4.39;80.40;102988.91;4992780;28;20052;-49
2021/11/23 01:40:04;;;;;;;11.13;6.20;;;;;;;4.39;80.54;102978.09;4992889;28;20054;-50
2021/11/23 01:42:31;;;;;;;12.65;5.70;;;;;;;4.39;80.96;102987.03;4994159;28;20049;-51
2021/11/23 01:44:59;;;;;;;10.82;6.13;;;;;;;4.41;81.22;102981.47;4992754;28;20049;-47
2021/11/23 01:47:27;;;;;;;10.48;5.38;;;;;;;4.44;81.77;102981.13;4993105;28;20049;-51
2021/11/23 01:49:54;;;;;;;11.45;5.35;;;;;;;4.45;81.97;102978.25;4993036;28;20054;-47
2021/11/23 01:52:22;;;;;;;9.48;5.68;;;;;;;4.46;81.78;102979.94;4992754;28;20034;-49
2021/11/23 01:54:51;;;;;;;11.65;5.60;;;;;;;4.46;81.21;102981.78;4993860;28;20489;-51
2021/11/23 01:57:19;;;;;;;11.93;5.70;;;;;;;4.46;81.80;102976.38;4992317;28;20038;-53
2021/11/23 01:59:47;;;;;;;11.77;6.20;;;;;;;4.47;82.02;102988.84;4992716;28;20046;-50
2021/11/23 02:02:15;;;;;;;13.18;5.88;;;;;;;4.49;82.07;102981.44;4992774;28;20046;-50
2021/11/23 02:04:45;;;;;;;15.57;5.93;;;;;;;4.51;82.50;102986.66;4993755;28;20049;-50
2021/11/23 02:07:13;;;;;;;11.88;6.20;;;;;;;4.51;82.22;102984.81;4992417;28;20050;-51
2021/11/23 02:09:41;;;;;;;13.05;5.60;;;;;;;4.50;82.54;102988.53;4991532;28;20114;-47
2021/11/23 02:12:08;;;;;;;15.23;5.85;;;;;;;4.49;82.75;102984.97;4991176;28;20057;-53
2021/11/23 02:14:38;;;;;;;12.90;5.75;;;;;;;4.52;83.07;102994.56;4997332;28;20038;-46
2021/11/23 02:17:05;;;;;;;11.80;5.63;;;;;;;4.53;83.41;102988.19;4999539;28;20046;-53
2021/11/23 02:19:33;;;;;;;16.10;6.68;;;;;;;4.54;83.80;102987.16;4992227;28;20042;-50
2021/11/23 02:22:01;;;;;;;14.73;6.05;;;;;;;4.54;83.57;102986.31;4991585;28;20042;-51
2021/11/23 02:24:30;;;;;;;12.18;6.07;;;;;;;4.53;83.35;102987.34;4992462;28;20047;-51
2021/11/23 02:26:57;;;;;;;12.75;5.68;;;;;;;4.52;83.66;102978.38;4993265;28;20049;-51
2021/11/23 02:29:25;;;;;;;12.95;6.22;;;;;;;4.51;84.08;102987.50;4994029;28;20497;-50
2021/11/23 02:31:52;;;;;;;20.45;6.70;;;;;;;4.53;84.24;102980.06;4996046;28;20046;-50
2021/11/23 02:34:20;;;;;;;15.50;6.00;;;;;;;4.53;84.31;102988.19;4996797;28;20524;-50
2021/11/23 02:36:48;;;;;;;12.38;6.07;;;;;;;4.54;84.58;102997.94;4997065;28;20046;-50
2021/11/23 02:39:15;;;;;;;11.95;5.93;;;;;;;4.56;84.44;102985.13;4996106;28;20049;-51
2021/11/23 02:41:43;;;;;;;10.60;5.80;;;;;;;4.57;84.33;102988.66;4996235;28;20066;-51
2021/11/23 02:44:11;;;;;;;10.15;5.82;;;;;;;4.58;84.13;102983.09;4996355;28;20046;-52
2021/11/23 02:46:38;;;;;;;11.10;5.97;;;;;;;4.58;83.98;102985.78;4998337;28;20031;-50
2021/11/23 02:49:06;;;;;;;14.98;6.05;;;;;;;4.57;84.45;102976.03;4996292;28;20042;-51
2021/11/23 02:51:36;;;;;;;10.50;5.50;;;;;;;4.54;84.96;102980.91;4995712;28;20042;-53
2021/11/23 02:54:05;;;;;;;13.45;5.57;;;;;;;4.52;85.00;102980.25;4995835;28;20056;-50
2021/11/23 02:56:33;;;;;;;12.23;5.55;;;;;;;4.52;85.15;102978.38;4997113;28;20046;-50
2021/11/23 02:59:00;;;;;;;13.07;6.00;;;;;;;4.56;85.80;102974.31;4996037;28;20050;-49
2021/11/23 03:01:28;;;;;;;15.07;6.00;;;;;;;4.60;85.67;102969.44;4996279;28;20046;-48
2021/11/23 03:03:56;;;;;;;14.98;5.80;;;;;;;4.62;85.47;102964.69;4995671;28;20126;-53
2021/11/23 03:06:24;;;;;;;14.85;5.75;;;;;;;4.64;85.65;102963.50;4997071;28;20060;-48
2021/11/23 03:08:52;;;;;;;16.08;5.80;;;;;;;4.66;85.95;102955.22;4995459;28;20049;-53
2021/11/23 03:11:21;;;;;;;15.48;5.90;;;;;;;4.67;86.10;102944.25;4995980;28;20409;-50
2021/11/23 03:13:49;;;;;;;15.45;5.97;;;;;;;4.70;86.16;102943.88;4995761;28;20125;-53
2021/11/23 03:16:17;;;;;;;16.70;5.50;;;;;;;4.73;86.08;102942.69;4999076;28;20050;-49
2021/11/23 03:18:45;;;;;;;13.45;6.35;;;;;;;4.74;85.82;102946.22;4994977;28;20050;-50
2021/11/23 03:21:12;;;;;;;11.48;5.78;;;;;;;4.72;85.91;102946.41;4995174;28;20050;-52
2021/11/23 03:23:40;;;;;;;12.85;5.78;;;;;;;4.71;85.79;102950.13;4995480;28;20061;-50
2021/11/23 03:26:08;;;;;;;12.55;5.88;;;;;;;4.73;85.85;102948.09;4996532;28;20137;-50
2021/11/23 03:28:35;;;;;;;10.32;5.68;;;;;;;4.74;86.20;102944.38;4995386;28;20061;-51
2021/11/23 03:31:03;;;;;;;16.95;6.03;;;;;;;4.75;85.86;102939.81;4995410;28;20046;-51
2021/11/23 03:33:30;;;;;;;13.63;6.38;;;;;;;4.76;86.24;102936.91;4994846;28;20065;-52
2021/11/23 03:35:58;;;;;;;16.15;6.05;;;;;;;4.75;86.07;102943.34;4994895;28;20050;-53
2021/11/23 03:38:28;;;;;;;13.20;5.95;;;;;;;4.77;86.22;102943.19;4995011;28;20105;-53
2021/11/23 03:40:56;;;;;;;11.38;5.63;;;;;;;4.78;85.96;102936.75;4994307;28;20042;-50
2021/11/23 03:43:23;;;;;;;11.40;6.47;;;;;;;4.77;85.81;102954.00;4995403;28;20054;-53
2021/11/23 03:45:51;;;;;;;14.35;6.40;;;;;;;4.76;86.07;102955.81;4995284;28;20042;-54
2021/11/23 03:48:18;;;;;;;13.48;5.85;;;;;;;4.75;85.99;102950.63;4998348;28;20043;-54
2021/11/23 03:50:46;;;;;;;13.57;6.30;;;;;;;4.74;86.24;102957.88;4994349;28;20046;-51
2021/11/23 03:53:14;;;;;;;13.40;5.75;;;;;;;4.75;86.55;102954.16;4995210;28;20520;-51
2021/11/23 03:55:48;;;;;;;14.30;6.43;;;;;;;4.75;86.41;102953.31;4996207;28;20038;-53
2021/11/23 03:58:16;;;;;;;14.52;6.00;;;;;;;4.77;86.80;102957.53;4995305;28;20054;-50
2021/11/23 04:00:43;;;;;;;12.43;5.88;;;;;;;4.78;86.52;102950.25;4995015;28;20079;-50
2021/11/23 04:03:11;;;;;;;10.63;5.53;;;;;;;4.78;86.23;102956.50;4993851;28;20073;-47
2021/11/23 04:05:39;;;;;;;16.90;6.28;;;;;;;4.76;85.76;102952.28;4995245;28;20049;-52
2021/11/23 04:08:06;;;;;;;13.45;6.15;;;;;;;4.72;85.45;102945.59;4983493;28;20118;-51
2021/11/23 04:10:34;;;;;;;11.10;5.95;;;;;;;4.70;85.49;102949.28;4994372;28;20054;-47
2021/11/23 04:13:01;;;;;;;11.38;5.32;;;;;;;4.68;85.24;102945.06;4994494;28;20035;-53
2021/11/23 04:15:29;;;;;;;11.10;5.45;;;;;;;4.65;85.02;102940.03;4994905;28;20057;-50
2021/11/23 04:17:57;;;;;;;10.65;5.80;;;;;;;4.62;85.50;102941.22;5007698;28;20049;-50
2021/11/23 04:20:24;;;;;;;11.25;5.70;;;;;;;4.58;84.56;102941.75;4993879;28;20053;-53
2021/11/23 04:22:52;;;;;;;13.55;5.78;;;;;;;4.56;85.16;102943.78;4994446;28;20045;-53
2021/11/23 04:25:20;;;;;;;10.73;5.50;;;;;;;4.55;85.07;102956.44;4995605;28;20041;-53
2021/11/23 04:27:48;;;;;;;14.70;6.25;;;;;;;4.55;85.38;102959.16;4994365;28;20053;-51
2021/11/23 04:30:16;;;;;;;13.52;5.65;;;;;;;4.57;85.01;102954.44;4994221;28;20046;-51
2021/11/23 04:32:44;;;;;;;12.95;5.65;;;;;;;4.57;84.62;102954.44;4993824;28;20516;-53
2021/11/23 04:35:12;;;;;;;15.25;5.68;;;;;;;4.56;85.11;102955.44;4993569;28;20093;-46
2021/11/23 04:37:40;;;;;;;13.73;6.22;;;;;;;4.54;84.91;102948.53;4995447;28;20042;-47
2021/11/23 04:40:10;;;;;;;11.48;5.93;;;;;;;4.52;84.90;102956.78;4994378;28;20034;-47
2021/11/23 04:42:38;;;;;;;12.85;6.30;;;;;;;4.50;85.13;102950.75;4994361;28;20054;-46
2021/11/23 04:45:07;;;;;;;10.57;5.80;;;;;;;4.50;85.40;102948.03;4994974;28;20048;-48
2021/11/23 04:47:35;;;;;;;11.80;5.65;;;;;;;4.49;85.42;102947.19;4993814;28;20042;-49
2021/11/23 04:50:05;;;;;;;10.93;5.57;;;;;;;4.49;85.40;102940.94;4991860;28;20049;-52
2021/11/23 04:52:32;;;;;;;11.55;5.35;;;;;;;4.49;85.44;102941.78;4994132;28;20043;-50
2021/11/23 04:55:00;;;;;;;12.77;5.85;;;;;;;4.49;85.61;102947.19;4994127;28;20508;-50
2021/11/23 04:57:28;;;;;;;12.88;6.28;;;;;;;4.47;85.50;102941.13;4994654;28;20047;-52
2021/11/23 04:59:56;;;;;;;11.05;5.20;;;;;;;4.45;85.31;102937.75;4993446;28;20051;-54
2021/11/23 05:02:23;;;;;;;12.50;6.28;;;;;;;4.45;85.87;102926.97;4993489;28;20113;-49
2021/11/23 05:04:51;;;;;;;13.57;5.70;;;;;;;4.47;85.76;102926.78;4993468;28;20041;-51
2021/11/23 05:07:19;;;;;;;11.40;5.93;;;;;;;4.47;85.95;102929.47;4994551;28;20042;-50
2021/11/23 05:09:46;;;;;;;13.68;5.93;;;;;;;4.49;86.48;102932.84;4993498;28;20042;-46
2021/11/23 05:12:14;;;;;;;13.75;6.38;;;;;;;4.50;85.75;102931.84;4993334;28;20536;-48
2021/11/23 05:14:41;;;;;;;15.30;6.40;;;;;;;4.50;86.34;102931.84;4993478;28;20128;-47
2021/11/23 05:17:09;;;;;;;11.98;5.88;;;;;;;4.52;86.21;102931.66;4994372;28;20133;-53
2021/11/23 05:19:37;;;;;;;14.23;5.95;;;;;;;4.53;86.40;102931.47;4993312;28;20046;-54
2021/11/23 05:22:05;;;;;;;11.48;5.90;;;;;;;4.54;86.46;102929.63;4993473;28;20054;-51
2021/11/23 05:24:33;;;;;;;12.60;6.10;;;;;;;4.55;86.88;102926.75;4992225;28;20038;-50
2021/11/23 05:27:02;;;;;;;12.57;6.18;;;;;;;4.55;87.12;102932.16;4994534;28;20042;-49
2021/11/23 05:29:29;;;;;;;13.15;6.10;;;;;;;4.58;86.78;102933.66;4991713;28;20046;-50
2021/11/23 05:31:57;;;;;;;14.48;6.40;;;;;;;4.58;86.89;102929.09;4992586;28;20462;-51
2021/11/23 05:34:25;;;;;;;15.07;6.18;;;;;;;4.59;87.10;102930.75;4993019;28;20062;-51
2021/11/23 05:36:52;;;;;;;14.18;5.85;;;;;;;4.59;87.29;102933.47;4995287;28;20425;-52
2021/11/23 05:39:20;;;;;;;11.27;5.72;;;;;;;4.60;87.28;102928.94;5003219;28;20057;-50
2021/11/23 05:41:49;;;;;;;12.25;6.53;;;;;;;4.60;87.32;102937.88;4992863;28;20412;-51
2021/11/23 05:44:17;;;;;;;13.60;6.18;;;;;;;4.60;87.60;102921.66;4992537;28;20038;-50
2021/11/23 05:46:45;;;;;;;12.50;6.32;;;;;;;4.62;87.83;102935.84;4992541;28;20065;-51
2021/11/23 05:49:12;;;;;;;13.32;6.38;;;;;;;4.62;87.48;102935.84;4994191;28;20050;-48
2021/11/23 05:51:40;;;;;;;15.00;6.55;;;;;;;4.62;87.85;102935.84;4991807;28;20053;-51
2021/11/23 05:54:07;;;;;;;12.98;6.05;;;;;;;4.64;87.94;102930.25;4992981;28;20121;-52
2021/11/23 05:56:35;;;;;;;11.00;5.78;;;;;;;4.67;88.19;102936.16;4995572;28;20050;-52
2021/11/23 05:59:03;;;;;;;11.43;6.10;;;;;;;4.68;87.96;102935.13;4997051;28;20087;-51
2021/11/23 06:01:31;;;;;;;11.20;5.90;;;;;;;4.68;88.05;102932.41;4999398;28;20049;-51
2021/11/23 06:03:58;;;;;;;16.00;6.43;;;;;;;4.69;88.30;102942.22;4997782;28;20050;-48
2021/11/23 06:06:26;;;;;;;12.95;6.05;;;;;;;4.71;88.27;102939.31;4998228;28;20053;-50
2021/11/23 06:08:54;;;;;;;13.95;5.82;;;;;;;4.70;88.10;102935.78;4994445;28;20052;-52
2021/11/23 06:11:22;;;;;;;12.43;6.22;;;;;;;4.70;88.49;102934.94;4992690;28;20061;-46
2021/11/23 06:13:49;;;;;;;11.20;5.63;;;;;;;4.70;88.60;102938.47;4991921;28;20043;-44
2021/11/23 06:16:17;;;;;;;11.93;5.32;;;;;;;4.70;89.08;102933.09;4992046;28;20046;-45
2021/11/23 06:18:45;;;;;;;11.02;5.88;;;;;;;4.70;89.27;102933.09;5003321;28;20042;-47
2021/11/23 06:21:12;;;;;;;9.95;5.10;;;;;;;4.72;89.70;102932.91;4993270;28;20042;-49
2021/11/23 06:23:40;;;;;;;9.70;4.82;;;;;;;4.74;90.28;102930.03;4992932;28;20038;-47
2021/11/23 06:26:09;;;;;;;13.48;5.43;;;;;;;4.72;90.12;102938.31;4992388;28;20449;-47
2021/11/23 06:28:36;;;;;;;10.90;4.88;;;;;;;4.74;90.35;102933.59;4992968;28;20049;-47
2021/11/23 06:31:04;;;;;;;12.32;5.50;;;;;;;4.74;90.74;102927.31;4992675;28;20397;-47
2021/11/23 06:33:32;;;;;;;13.02;5.47;;;;;;;4.74;90.77;102933.59;4992393;28;20042;-50
2021/11/23 06:35:59;;;;;;;10.82;5.45;;;;;;;4.74;91.14;102930.88;4993338;28;20039;-48
2021/11/23 06:38:27;;;;;;;10.38;5.00;;;;;;;4.76;91.43;102933.38;5000448;28;20046;-44
2021/11/23 06:40:54;;;;;;;11.43;5.43;;;;;;;4.77;91.37;102926.97;4992448;28;20123;-46
2021/11/23 06:43:22;;;;;;;10.57;5.35;;;;;;;4.78;91.71;102934.06;4992220;28;20448;-48
2021/11/23 06:45:50;;;;;;;12.52;5.32;;;;;;;4.80;91.72;102940.13;4985295;28;20398;-47
2021/11/23 06:48:20;;;;;;;9.73;4.88;;;;;;;4.81;91.82;102942.66;4984737;28;20049;-47
2021/11/23 06:50:48;;;;;;;14.20;5.78;;;;;;;4.82;91.89;102935.38;4991306;28;20046;-48
2021/11/23 06:53:16;;;;;;;16.98;6.18;;;;;;;4.84;92.15;102944.16;4992225;28;20061;-51
2021/11/23 06:55:44;;;;;;;12.07;5.18;;;;;;;4.83;92.36;102947.88;4991590;28;20119;-51
2021/11/23 06:58:11;;;;;;;14.18;5.65;;;;;;;4.84;92.14;102946.88;4992052;28;20039;-48
2021/11/23 07:00:40;;;;;;;16.50;6.13;;;;;;;4.85;92.82;102948.53;4995759;28;20042;-47
2021/11/23 07:03:08;;;;;;;12.70;5.30;;;;;;;4.87;92.63;102949.19;4301249;28;10000834;-45
2021/11/23 07:05:37;;;;;;;15.85;6.07;;;;;;;4.88;92.88;102957.13;4989733;28;20047;-50
2021/11/23 07:08:25;;;;;;;12.63;5.80;;;;;;;4.88;93.05;102957.13;4989734;28;20043;-48
2021/11/23 07:10:53;;;;;;;12.25;5.63;;;;;;;4.89;93.28;102957.97;4990409;28;20049;-49
2021/11/23 07:13:21;;;;;;;12.23;5.32;;;;;;;4.89;93.25;102963.38;4989493;28;20046;-45
2021/11/23 07:15:48;;;;;;;13.95;5.20;;;;;;;4.88;93.30;102965.25;4989559;28;20692;-51
2021/11/23 07:18:16;;;;;;;12.73;5.80;;;;;;;4.88;93.70;102970.66;4993490;28;20097;-49
2021/11/23 07:20:45;;;;;;;12.48;4.72;;;;;;;4.88;93.95;102967.06;4994332;28;20030;-48
2021/11/23 07:23:16;;;;;;;13.35;4.75;;;;;;;4.89;93.90;102972.31;4992889;28;20870;-48
2021/11/23 07:25:43;;;;;;;11.48;5.22;;;;;;;4.92;94.11;102984.63;4993060;28;20085;-49
2021/11/23 07:28:11;;;;;;;15.60;5.28;;;;;;;4.87;94.63;102987.84;4992237;28;20046;-48
2021/11/23 07:30:39;;;;;;;13.23;5.45;;;;;;;4.85;95.01;102983.66;4994250;28;20092;-47
2021/11/23 07:33:06;;;;;;;12.57;5.15;;;;;;;4.83;95.64;102981.09;4997682;28;20062;-49
2021/11/23 07:35:34;;;;;;;17.63;5.60;;;;;;;4.83;95.77;102983.81;4993364;28;20061;-48
2021/11/23 07:38:02;;;;;;;11.18;5.18;;;;;;;4.85;96.31;102992.59;4992812;28;20521;-48
2021/11/23 07:40:29;;;;;;;16.15;5.53;;;;;;;4.85;95.84;102989.88;4992246;28;20045;-47
2021/11/23 07:42:57;;;;;;;12.25;5.20;;;;;;;4.89;95.85;102990.38;4997421;28;20374;-49
2021/11/23 07:45:40;;;;;;;9.20;4.32;;;;;;;4.95;95.47;102991.53;4994869;28;20039;-49
2021/11/23 07:48:09;;;;;;;12.50;5.10;;;;;;;4.98;95.40;102992.03;4994606;28;20507;-48
2021/11/23 07:50:38;;;;;;;11.27;4.57;;;;;;;5.00;95.15;102986.44;4994992;28;20043;-48
2021/11/23 07:53:06;;;;;;;10.90;4.63;;;;;;;5.01;95.30;102993.53;5004998;28;20052;-48
2021/11/23 07:55:34;;;;;;;13.98;5.45;;;;;;;5.01;95.30;102997.06;4996777;28;20039;-48
2021/11/23 07:58:03;;;;;;;10.15;4.63;;;;;;;5.02;95.15;102996.03;4994752;28;20038;-46
2021/11/23 08:00:30;;;;;;;15.90;5.18;;;;;;;5.06;95.34;103001.94;4994514;28;20053;-47
2021/11/23 08:02:58;;;;;;;12.07;5.35;;;;;;;5.06;95.62;102997.38;4994426;28;20054;-48
2021/11/23 08:05:26;;;;;;;9.27;4.60;;;;;;;5.07;95.01;102999.03;4994764;28;20042;-49
2021/11/23 08:07:54;;;;;;;13.38;5.43;;;;;;;5.09;95.37;103002.41;4994727;28;20129;-49
2021/11/23 08:10:21;;;;;;;11.77;5.03;;;;;;;5.10;95.25;103003.28;4994606;28;20038;-46
2021/11/23 08:12:49;;;;;;;13.55;5.47;;;;;;;5.10;95.45;103004.13;4995120;28;20497;-48
2021/11/23 08:15:16;;;;;;;12.38;5.15;;;;;;;5.13;95.19;103008.31;4994394;28;20045;-48
2021/11/23 08:17:46;;;;;;;12.02;5.05;;;;;;;5.15;95.40;103010.81;4994250;28;20038;-48
2021/11/23 08:20:14;;;;;;;13.50;5.60;;;;;;;5.14;95.26;103018.09;4993164;28;20494;-48
2021/11/23 08:22:43;;;;;;;15.20;6.30;;;;;;;5.12;95.38;103012.91;5006475;28;20397;-45
2021/11/23 08:25:11;;;;;;;11.73;5.82;;;;;;;5.17;95.58;103019.59;4993712;28;20057;-48
2021/11/23 08:27:39;;;;;;;14.93;5.72;;;;;;;5.19;95.71;103018.41;4993945;28;20061;-48
2021/11/23 08:30:08;;;;;;;13.88;5.65;;;;;;;5.21;96.21;103012.84;4994274;28;20053;-49
2021/11/23 08:32:36;;;;;;;17.15;6.07;;;;;;;5.35;96.73;103012.06;5003414;28;20488;-49
2021/11/23 08:35:05;;;;;;;16.95;5.68;;;;;;;5.39;96.46;103018.81;4996813;28;20064;-49
2021/11/23 08:37:33;;;;;;;11.65;4.93;;;;;;;5.36;96.23;103011.03;4993827;28;20056;-48
2021/11/23 08:40:01;;;;;;;13.82;5.40;;;;;;;5.33;95.97;103014.09;4992681;28;20046;-50
2021/11/23 08:42:29;;;;;;;14.88;5.43;;;;;;;5.29;96.00;103015.47;4995398;28;20035;-49
2021/11/23 08:44:57;;;;;;;13.30;5.18;;;;;;;5.27;95.89;103020.25;4993876;28;20046;-47
2021/11/23 08:47:25;;;;;;;11.68;4.82;;;;;;;5.26;95.92;103013.97;4994061;28;20104;-48
2021/11/23 08:49:54;;;;;;;16.83;5.53;;;;;;;5.25;96.06;103016.88;4994200;28;20058;-47
2021/11/23 08:52:22;;;;;;;11.35;4.88;;;;;;;5.26;96.24;103010.44;4993527;28;20050;-48
2021/11/23 08:54:49;;;;;;;11.45;5.35;;;;;;;5.27;96.28;103020.25;4994626;28;20050;-47
2021/11/23 08:57:17;;;;;;;17.15;5.80;;;;;;;5.29;96.72;103029.84;4993214;28;20039;-50
2021/11/23 08:59:44;;;;;;;12.80;5.38;;;;;;;5.32;96.58;103023.25;4993762;28;20049;-47
2021/11/23 09:02:14;;;;;;;11.82;5.43;;;;;;;5.33;96.86;103030.31;4990352;28;20034;-48
2021/11/23 09:04:44;;;;;;;13.63;5.50;;;;;;;5.33;96.68;103030.31;4987555;28;20070;-48
2021/11/23 09:07:16;;;;;;;15.70;6.18;;;;;;;5.32;96.85;103034.91;4992497;28;20043;-49
2021/11/23 09:09:44;;;;;;;10.75;5.55;;;;;;;5.32;97.06;103037.59;4981407;28;20049;-48
2021/11/23 09:12:17;;;;;;;10.57;5.38;;;;;;;5.30;97.02;103036.94;4992739;28;20510;-50
2021/11/23 09:14:45;;;;;;;16.40;6.10;;;;;;;5.31;97.13;103033.19;4995845;28;20054;-43
2021/11/23 09:17:13;;;;;;;20.23;6.43;;;;;;;5.51;100.00;103039.00;4998776;28;20051;-45
2021/11/23 09:19:40;;;;;;;11.75;5.50;;;;;;;5.68;98.90;103039.72;4992978;28;20050;-48
2021/11/23 09:22:08;;;;;;;13.85;5.40;;;;;;;5.68;97.67;103042.44;4992369;28;20042;-49
2021/11/23 09:24:36;;;;;;;12.80;5.68;;;;;;;5.65;97.67;103031.97;4992392;28;20056;-48
2021/11/23 09:27:04;;;;;;;18.73;6.38;;;;;;;5.64;97.33;103032.16;4992392;28;20453;-48
2021/11/23 09:29:32;;;;;;;13.65;6.15;;;;;;;5.63;97.52;103035.84;4993259;28;20053;-48
2021/11/23 09:31:59;;;;;;;13.98;5.93;;;;;;;5.61;97.81;103035.22;4990534;28;20146;-47
2021/11/23 09:34:27;;;;;;;12.93;6.10;;;;;;;5.61;98.14;103037.94;4989719;28;20104;-47
2021/11/23 09:36:55;;;;;;;14.05;6.30;;;;;;;5.62;98.27;103035.03;4992959;28;20038;-47
2021/11/23 09:39:23;;;;;;;14.73;6.22;;;;;;;5.62;98.64;103035.03;4991619;28;20043;-44
2021/11/23 09:41:52;;;;;;;12.15;5.80;;;;;;;5.62;98.95;103039.59;4991669;28;20049;-47
2021/11/23 09:44:19;;;;;;;14.45;6.45;;;;;;;5.64;99.00;103042.97;4991920;28;20053;-47
2021/11/23 09:46:47;;;;;;;13.57;5.93;;;;;;;5.65;99.16;103039.22;4990382;28;20050;-49
2021/11/23 09:49:16;;;;;;;16.02;6.88;;;;;;;5.66;99.47;103035.53;4994688;28;20112;-48
2021/11/23 09:51:44;;;;;;;12.57;6.28;;;;;;;5.68;99.38;103042.44;4991913;28;20042;-49
2021/11/23 09:54:12;;;;;;;16.02;6.82;;;;;;;5.70;99.86;103036.81;4991804;28;20497;-47
2021/11/23 09:56:42;;;;;;;14.18;7.90;;;;;;;5.71;99.85;103033.94;4990786;28;20054;-50
2021/11/23 09:59:11;;;;;;;18.08;8.38;;;;;;;5.74;100.00;103030.03;4992398;28;20058;-47
2021/11/23 10:01:56;;;;;;;16.63;8.40;;;;;;;5.76;100.00;103033.41;4992809;28;20078;-46
2021/11/23 10:04:56;;;;;;;14.40;7.72;;;;;;;5.79;100.00;103038.44;4986202;28;20054;-45
2021/11/23 10:07:35;;;;;;;18.15;8.75;;;;;;;5.81;100.00;103025.56;5000227;28;20481;-44
2021/11/23 10:10:19;;;;;;;15.93;8.57;;;;;;;5.86;100.00;103025.03;5007395;28;20046;-47
2021/11/23 10:12:52;;;;;;;15.70;8.40;;;;;;;5.89;100.00;103025.53;4996222;28;20038;-45
2021/11/23 10:15:21;;;;;;;16.63;8.32;;;;;;;5.91;100.00;103023.44;4993961;28;20041;-45
2021/11/23 10:17:51;;;;;;;18.65;8.00;;;;;;;5.94;100.00;103022.28;5003442;28;20038;-48
2021/11/23 10:20:35;;;;;;;14.07;7.60;;;;;;;5.96;100.00;103026.50;5001437;28;20050;-47
2021/11/23 10:23:23;;;;;;;13.52;7.13;;;;;;;5.99;100.00;103022.59;4992129;28;20046;-47
2021/11/23 10:25:54;;;;;;;19.50;7.40;;;;;;;6.00;100.00;103021.56;4993189;28;20058;-47
2021/11/23 10:28:24;;;;;;;15.05;7.10;;;;;;;6.02;100.00;103019.53;4992535;28;20045;-48
2021/11/23 10:30:51;;;;;;;18.20;7.68;;;;;;;6.02;100.00;103022.22;4993845;28;20114;-49
2021/11/23 10:33:20;;;;;;;15.32;7.18;;;;;;;6.08;100.00;103020.63;4995847;28;20104;-49
2021/11/23 10:35:51;;;;;;;13.68;6.97;;;;;;;6.12;100.00;103017.38;4993493;28;20045;-48
2021/11/23 10:38:20;;;;;;;21.90;7.10;;;;;;;6.14;100.00;103009.94;4990581;28;20046;-48
2021/11/23 10:40:49;;;;;;;11.73;6.30;;;;;;;6.17;100.00;103019.53;4991147;28;20437;-47
2021/11/23 10:43:19;;;;;;;14.43;7.20;;;;;;;6.18;100.00;103019.38;4992144;28;20409;-47
2021/11/23 10:45:55;;;;;;;15.15;7.47;;;;;;;6.22;100.00;103014.41;4993231;28;20046;-47
2021/11/23 10:48:25;;;;;;;13.73;6.43;;;;;;;6.22;100.00;103014.41;4995968;28;20049;-51
2021/11/23 10:51:11;;;;;;;15.43;7.20;;;;;;;6.23;100.00;103004.41;4994406;28;20042;-46
2021/11/23 10:53:42;;;;;;;12.47;6.40;;;;;;;6.24;100.00;103006.94;4996000;28;20050;-47
2021/11/23 10:56:13;;;;;;;15.15;7.47;;;;;;;6.27;100.00;103000.31;4996814;28;20320;-45
2021/11/23 10:58:42;;;;;;;16.58;7.88;;;;;;;6.39;100.00;102998.84;4995749;28;20038;-50
2021/11/23 11:01:10;;;;;;;14.73;7.03;;;;;;;6.42;100.00;103003.88;4995637;28;20069;-49
2021/11/23 11:03:40;;;;;;;16.52;7.40;;;;;;;6.43;100.00;103007.44;4995367;28;20057;-45
2021/11/23 11:06:09;;;;;;;13.45;6.45;;;;;;;6.45;100.00;102994.56;4994935;28;20039;-47
2021/11/23 11:08:39;;;;;;;12.98;5.78;;;;;;;6.48;100.00;102992.31;4995795;28;20045;-46
2021/11/23 11:11:13;;;;;;;12.95;6.82;;;;;;;6.48;100.00;102996.88;4996049;28;20513;-49
2021/11/23 11:13:41;;;;;;;15.55;6.57;;;;;;;6.49;100.00;102990.44;4995736;28;20054;-49
2021/11/23 11:16:11;;;;;;;15.95;6.15;;;;;;;6.49;100.00;102985.84;4978273;28;20058;-49
2021/11/23 11:18:38;;;;;;;16.40;7.20;;;;;;;6.52;100.00;102990.06;4997401;28;20142;-47
2021/11/23 11:21:06;;;;;;;16.27;7.22;;;;;;;6.53;100.00;102984.44;4646280;28;9999809;-47
2021/11/23 11:23:43;;;;;;;11.57;6.80;;;;;;;6.56;100.00;102988.66;4993825;28;20709;-49
2021/11/23 11:26:16;;;;;;;15.98;6.93;;;;;;;6.59;100.00;102990.97;5000274;28;20045;-45
2021/11/23 11:29:01;;;;;;;15.68;6.25;;;;;;;6.62;100.00;102993.31;4981408;28;20054;-48
2021/11/23 11:31:38;;;;;;;16.20;7.57;;;;;;;6.66;100.00;103005.44;4993055;28;20480;-46